YZX weather

CFB Greenwood
Greenwood, Nova Scotia, Canada

Public forecast

Using degrees Celsius for public forecast. Weather courtesy of forecast.io.

METAR (pilot weather report)

Retrieved 2019/04/18 17:00 UTC (57 minutes ago):

CYZX 181700Z 22006KT 15SM OVC250 13/01 A3027 RMK CI8 SLP253

TAF (pilot weather forecast)

Retrieved 2019/04/18 12:33 UTC (5 hours ago):

TAF TAF CYZX 181130Z 1812/1912 VRB03KT P6SM FEW250 FM181400 VRB03KT P6SM FEW030 SCT180 BKN250 FM181700 23005KT P6SM SCT050 BKN150 FM182100 28005KT P6SM BKN050 OVC120 FM190000 20010KT P6SM BKN030 OVC080 TEMPO 1900/1903 P6SM -SHRA FM190300 18010KT P6SM -RA SCT020 OVC030 TEMPO 1903/1905 4SM -RA BR OVC020 FM190500 18020KT 2SM -RA BR SCT008 OVC012 FM191100 21020KT 1SM -DZ BR OVC008 RMK NXT FCST BY 181800Z